Time;durP1;ratioP1;P1;durP2;ratioP2;P2;SDS_P1;SDS_P2;PMS_P1;PMS_P2;Temp;Humidity;BMP_temperature;BMP_pressure;BME280_temperature;BME280_humidity;BME280_pressure;Samples;Min_cycle;Max_cycle;Signal;HPM_P1;HPM_P2
2021/10/13 00:01:21;;;;;;;5.33;4.60;;;11.20;99.90;;;;;;5091566;28;20228;-59
2021/10/13 00:03:47;;;;;;;5.70;5.10;;;11.20;99.90;;;;;;5091755;28;20210;-59
2021/10/13 00:06:14;;;;;;;5.63;4.90;;;11.10;99.90;;;;;;5091403;28;20220;-60
2021/10/13 00:08:41;;;;;;;5.87;5.27;;;10.90;99.90;;;;;;5091553;28;20208;-61
2021/10/13 00:11:08;;;;;;;5.83;4.93;;;10.70;99.90;;;;;;5091846;28;20494;-59
2021/10/13 00:13:36;;;;;;;6.90;6.20;;;10.60;99.90;;;;;;5091502;28;20212;-59
2021/10/13 00:16:04;;;;;;;7.17;5.63;;;10.40;99.90;;;;;;5091681;28;20261;-59
2021/10/13 00:18:30;;;;;;;6.93;5.63;;;10.20;99.90;;;;;;5091727;28;20299;-60
2021/10/13 00:20:57;;;;;;;6.73;5.80;;;10.00;99.90;;;;;;5091507;28;20211;-61
2021/10/13 00:23:24;;;;;;;7.00;5.90;;;9.80;99.90;;;;;;5091326;28;20232;-60
2021/10/13 00:25:50;;;;;;;6.93;6.27;;;9.70;99.90;;;;;;5091229;28;20233;-60
2021/10/13 00:28:17;;;;;;;6.50;5.73;;;9.60;99.90;;;;;;5091320;28;20668;-60
2021/10/13 00:30:45;;;;;;;7.13;6.43;;;9.40;99.90;;;;;;5091614;28;20273;-69
2021/10/13 00:33:12;;;;;;;10.23;6.60;;;9.40;99.90;;;;;;5101373;22;20236;-60
2021/10/13 00:35:38;;;;;;;8.97;7.10;;;9.30;99.90;;;;;;5070615;28;20201;-60
2021/10/13 00:38:05;;;;;;;7.73;6.90;;;9.40;99.90;;;;;;5070612;28;20204;-60
2021/10/13 00:40:32;;;;;;;8.27;7.10;;;9.50;99.90;;;;;;5070773;28;20207;-60
2021/10/13 00:42:58;;;;;;;7.63;6.53;;;9.50;99.90;;;;;;5070603;28;20225;-59
2021/10/13 00:45:25;;;;;;;9.17;6.70;;;9.40;99.90;;;;;;5070282;28;20208;-60
2021/10/13 00:47:53;;;;;;;10.40;6.67;;;9.60;99.90;;;;;;5071560;28;20668;-60
2021/10/13 00:50:20;;;;;;;7.67;6.87;;;9.60;99.90;;;;;;5074641;28;20208;-60
2021/10/13 00:52:47;;;;;;;7.43;6.70;;;9.70;99.90;;;;;;5074992;28;20235;-60
2021/10/13 00:55:19;;;;;;;9.17;7.23;;;9.70;99.90;;;;;;5074558;28;20684;-60
2021/10/13 00:57:46;;;;;;;8.10;6.80;;;9.80;99.90;;;;;;5074519;28;20287;-59
2021/10/13 01:00:14;;;;;;;8.23;6.97;;;9.90;99.90;;;;;;5074587;28;20208;-60
2021/10/13 01:02:49;;;;;;;8.37;7.13;;;9.90;99.90;;;;;;5074507;28;20228;-59
2021/10/13 01:05:30;;;;;;;8.10;6.87;;;10.00;99.90;;;;;;5074217;28;20208;-60
2021/10/13 01:08:01;;;;;;;7.73;6.93;;;10.10;99.90;;;;;;5074532;28;20259;-60
2021/10/13 01:10:40;;;;;;;7.30;6.27;;;10.10;99.90;;;;;;5074424;28;20209;-60
2021/10/13 01:13:13;;;;;;;7.93;6.30;;;10.10;99.90;;;;;;5074335;28;20464;-59
2021/10/13 01:15:49;;;;;;;6.80;6.13;;;10.10;99.90;;;;;;5074093;28;20677;-60
2021/10/13 01:18:23;;;;;;;7.30;6.47;;;10.10;99.90;;;;;;5074594;28;20216;-59
2021/10/13 01:21:08;;;;;;;8.97;6.57;;;9.90;99.90;;;;;;5074387;28;20729;-60
2021/10/13 01:23:54;;;;;;;7.87;6.50;;;9.80;99.90;;;;;;5074119;28;20224;-60
2021/10/13 01:26:27;;;;;;;8.57;6.13;;;9.60;99.90;;;;;;5073922;28;20510;-60
2021/10/13 01:28:57;;;;;;;8.10;6.67;;;9.50;99.90;;;;;;5074039;28;20607;-60
2021/10/13 01:31:27;;;;;;;7.13;6.43;;;9.40;99.90;;;;;;5074198;28;20232;-60
2021/10/13 01:33:59;;;;;;;7.80;6.40;;;9.30;99.90;;;;;;5073979;28;20239;-60
2021/10/13 01:36:31;;;;;;;8.13;6.70;;;9.20;99.90;;;;;;5073787;28;20250;-60
2021/10/13 01:38:58;;;;;;;10.37;7.10;;;9.20;99.90;;;;;;5073506;28;20212;-59
2021/10/13 01:41:27;;;;;;;8.13;7.17;;;9.20;99.90;;;;;;5073904;28;20201;-60
2021/10/13 01:43:57;;;;;;;9.30;7.10;;;9.30;99.90;;;;;;5073433;28;20235;-59
2021/10/13 01:46:24;;;;;;;8.77;7.07;;;9.30;99.90;;;;;;5073627;28;20286;-60
2021/10/13 01:48:52;;;;;;;7.70;6.67;;;9.40;99.90;;;;;;5073858;28;20209;-59
2021/10/13 01:51:19;;;;;;;9.50;6.83;;;9.50;99.90;;;;;;5073400;28;20287;-60
2021/10/13 01:53:47;;;;;;;7.23;6.53;;;9.50;99.90;;;;;;5073121;28;20656;-60
2021/10/13 01:56:16;;;;;;;8.03;6.80;;;9.50;99.90;;;;;;5073398;28;20201;-60
2021/10/13 01:58:44;;;;;;;9.57;7.40;;;9.40;99.90;;;;;;5072812;28;20691;-60
2021/10/13 02:01:15;;;;;;;9.87;6.40;;;9.50;99.90;;;;;;5072407;28;20208;-60
2021/10/13 02:03:46;;;;;;;7.60;6.80;;;9.60;99.90;;;;;;5072840;28;20747;-59
2021/10/13 02:06:13;;;;;;;8.07;6.97;;;9.60;99.90;;;;;;5073489;28;20362;-60
2021/10/13 02:08:41;;;;;;;8.40;7.00;;;9.60;99.90;;;;;;5073356;28;20425;-60
2021/10/13 02:11:10;;;;;;;8.33;6.87;;;9.70;99.90;;;;;;5073474;28;20258;-59
2021/10/13 02:13:38;;;;;;;11.30;7.10;;;9.60;99.90;;;;;;5073022;28;20259;-59
2021/10/13 02:16:08;;;;;;;7.83;6.73;;;9.60;99.90;;;;;;5073137;28;20225;-60
2021/10/13 02:18:40;;;;;;;7.90;7.07;;;9.50;99.90;;;;;;5073161;28;20557;-60
2021/10/13 02:21:08;;;;;;;11.47;7.40;;;9.40;99.90;;;;;;5072930;28;20209;-60
2021/10/13 02:23:37;;;;;;;9.07;7.27;;;9.50;99.90;;;;;;5072864;28;20229;-60
2021/10/13 02:26:08;;;;;;;8.73;7.30;;;9.50;99.90;;;;;;5072868;28;20260;-60
2021/10/13 02:28:40;;;;;;;9.80;7.43;;;9.50;99.90;;;;;;5072823;28;20375;-60
2021/10/13 02:31:06;;;;;;;10.80;7.27;;;9.50;99.90;;;;;;5073313;28;20409;-58
2021/10/13 02:33:33;;;;;;;8.07;6.83;;;9.50;99.90;;;;;;5072572;28;20301;-59
2021/10/13 02:36:01;;;;;;;11.07;7.40;;;9.50;99.90;;;;;;5072992;28;20205;-60
2021/10/13 02:38:30;;;;;;;8.73;7.07;;;9.60;99.90;;;;;;5072628;28;20201;-60
2021/10/13 02:40:56;;;;;;;9.90;7.77;;;9.60;99.90;;;;;;5072723;28;20884;-60
2021/10/13 02:43:23;;;;;;;9.27;7.07;;;9.60;99.90;;;;;;5072220;28;20229;-58
2021/10/13 02:45:57;;;;;;;10.20;7.23;;;9.80;99.90;;;;;;5072663;28;20204;-60
2021/10/13 02:48:28;;;;;;;8.97;7.50;;;9.90;99.90;;;;;;5072552;28;20201;-60
2021/10/13 02:51:07;;;;;;;12.17;7.63;;;10.00;99.90;;;;;;5072276;28;20718;-60
2021/10/13 02:53:39;;;;;;;9.57;7.50;;;10.10;99.90;;;;;;5072097;28;20323;-60
2021/10/13 02:56:13;;;;;;;8.20;7.33;;;10.20;99.90;;;;;;5072560;28;20205;-60
2021/10/13 02:58:42;;;;;;;12.73;8.57;;;10.30;99.90;;;;;;5072530;28;20292;-60
2021/10/13 03:01:15;;;;;;;11.13;8.03;;;10.30;99.90;;;;;;5072223;28;20254;-59
2021/10/13 03:03:48;;;;;;;12.77;8.67;;;10.30;99.90;;;;;;5072023;28;20228;-60
2021/10/13 03:06:17;;;;;;;11.60;8.00;;;10.40;99.90;;;;;;5071952;28;20204;-60
2021/10/13 03:08:48;;;;;;;9.40;7.67;;;10.40;99.90;;;;;;5071926;28;20209;-60
2021/10/13 03:11:17;;;;;;;9.00;7.67;;;10.40;99.90;;;;;;5072376;28;20204;-60
2021/10/13 03:13:48;;;;;;;14.27;10.07;;;10.40;99.90;;;;;;5072251;28;20259;-59
2021/10/13 03:16:16;;;;;;;11.10;8.70;;;10.40;99.90;;;;;;5072027;28;20699;-59
2021/10/13 03:18:43;;;;;;;10.63;8.23;;;10.30;99.90;;;;;;5071853;28;20205;-60
2021/10/13 03:21:11;;;;;;;10.13;7.33;;;10.20;99.90;;;;;;5071948;28;20296;-60
2021/10/13 03:23:39;;;;;;;8.97;7.47;;;10.20;99.90;;;;;;5071721;28;20225;-59
2021/10/13 03:26:06;;;;;;;14.37;11.53;;;10.30;99.90;;;;;;5071741;28;20205;-59
2021/10/13 03:28:33;;;;;;;9.47;7.93;;;10.30;99.90;;;;;;5071534;28;20208;-60
2021/10/13 03:31:00;;;;;;;11.07;8.07;;;10.40;99.90;;;;;;5071983;28;20209;-58
2021/10/13 03:33:27;;;;;;;12.03;8.67;;;10.40;99.90;;;;;;5071046;28;20286;-58
2021/10/13 03:35:54;;;;;;;13.33;8.33;;;10.50;99.90;;;;;;5071637;28;20239;-59
2021/10/13 03:38:20;;;;;;;11.93;8.60;;;10.40;99.90;;;;;;5071619;28;20207;-57
2021/10/13 03:40:48;;;;;;;17.87;13.60;;;10.40;99.90;;;;;;5070968;28;20239;-60
2021/10/13 03:43:15;;;;;;;10.93;8.77;;;10.40;99.90;;;;;;5071056;28;20229;-61
2021/10/13 03:45:42;;;;;;;10.00;7.73;;;10.40;99.90;;;;;;5071026;28;20209;-61
2021/10/13 03:48:09;;;;;;;13.90;10.73;;;10.40;99.90;;;;;;5071006;28;20582;-60
2021/10/13 03:50:35;;;;;;;10.67;8.33;;;10.20;99.90;;;;;;5071103;28;20208;-61
2021/10/13 03:53:02;;;;;;;11.50;8.90;;;10.10;99.90;;;;;;5071218;28;20274;-60
2021/10/13 03:55:29;;;;;;;14.17;10.03;;;10.10;99.90;;;;;;5071240;28;20201;-61
2021/10/13 03:57:57;;;;;;;10.70;8.93;;;10.10;99.90;;;;;;5071185;28;20201;-59
2021/10/13 04:00:23;;;;;;;11.03;8.97;;;10.20;99.90;;;;;;5071418;28;20214;-60
2021/10/13 04:02:50;;;;;;;12.00;9.70;;;10.20;99.90;;;;;;5071400;28;20282;-59
2021/10/13 04:05:17;;;;;;;14.13;9.43;;;10.30;99.90;;;;;;5071074;28;20208;-60
2021/10/13 04:07:44;;;;;;;13.33;8.67;;;10.30;99.90;;;;;;5070980;28;20294;-58
2021/10/13 04:10:14;;;;;;;12.40;9.23;;;10.40;99.90;;;;;;5071042;28;20209;-60
2021/10/13 04:12:42;;;;;;;12.30;9.20;;;10.40;99.90;;;;;;5071088;28;20224;-60
2021/10/13 04:15:12;;;;;;;12.27;9.97;;;10.40;99.90;;;;;;5070610;28;20688;-61
2021/10/13 04:17:39;;;;;;;10.90;9.30;;;10.40;99.90;;;;;;5071122;28;20201;-59
2021/10/13 04:20:08;;;;;;;11.07;9.70;;;10.40;99.90;;;;;;5071057;28;20584;-60
2021/10/13 04:22:34;;;;;;;13.43;9.93;;;10.40;99.90;;;;;;5070366;28;20438;-60
2021/10/13 04:25:01;;;;;;;11.03;9.53;;;10.40;99.90;;;;;;5070715;28;20254;-60
2021/10/13 04:27:28;;;;;;;11.40;8.80;;;10.40;99.90;;;;;;5070549;28;20230;-59
2021/10/13 04:29:55;;;;;;;11.90;8.87;;;10.40;99.90;;;;;;5070783;28;20207;-60
2021/10/13 04:32:23;;;;;;;10.07;8.93;;;10.40;99.90;;;;;;5070684;28;20232;-59
2021/10/13 04:34:50;;;;;;;10.90;9.13;;;10.40;99.90;;;;;;5070702;28;20209;-59
2021/10/13 04:37:17;;;;;;;12.37;9.87;;;10.40;99.90;;;;;;5070787;28;20197;-60
2021/10/13 04:39:44;;;;;;;10.03;8.80;;;10.50;99.90;;;;;;5070558;28;20633;-60
2021/10/13 04:42:11;;;;;;;13.73;8.73;;;10.50;99.90;;;;;;5070493;28;20259;-59
2021/10/13 04:44:37;;;;;;;12.80;9.03;;;10.50;99.90;;;;;;5070569;28;20569;-58
2021/10/13 04:47:05;;;;;;;12.17;8.87;;;10.50;99.90;;;;;;5070526;28;20221;-60
2021/10/13 04:49:33;;;;;;;12.37;9.23;;;10.50;99.90;;;;;;5070583;28;20232;-59
2021/10/13 04:52:00;;;;;;;10.33;8.80;;;10.50;99.90;;;;;;5070427;28;20233;-61
2021/10/13 04:54:27;;;;;;;11.97;8.27;;;10.50;99.90;;;;;;5070271;28;20209;-57
2021/10/13 04:56:54;;;;;;;9.50;8.47;;;10.50;99.90;;;;;;5070515;28;20205;-57
2021/10/13 04:59:20;;;;;;;12.57;9.00;;;10.60;99.90;;;;;;5070349;28;20205;-60
2021/10/13 05:01:47;;;;;;;12.97;8.30;;;10.60;99.90;;;;;;5070193;28;20216;-58
2021/10/13 05:04:14;;;;;;;11.00;8.43;;;10.60;99.90;;;;;;5070086;28;20205;-58
2021/10/13 05:06:43;;;;;;;13.33;9.37;;;10.50;99.90;;;;;;5070192;28;20209;-58
2021/10/13 05:09:09;;;;;;;12.43;8.50;;;10.50;99.90;;;;;;5069813;28;20216;-59
2021/10/13 05:11:36;;;;;;;12.77;10.07;;;10.40;99.90;;;;;;5070065;28;20680;-60
2021/10/13 05:14:03;;;;;;;14.27;9.20;;;10.50;99.90;;;;;;5070057;28;20621;-59
2021/10/13 05:16:30;;;;;;;13.13;9.63;;;10.40;99.90;;;;;;5070123;28;20569;-59
2021/10/13 05:18:57;;;;;;;11.80;9.83;;;10.40;99.90;;;;;;5069980;28;20258;-59
2021/10/13 05:21:23;;;;;;;11.97;9.63;;;10.40;99.90;;;;;;5070424;28;20212;-59
2021/10/13 05:23:52;;;;;;;13.40;10.27;;;10.50;99.90;;;;;;5069896;28;20739;-59
2021/10/13 05:26:18;;;;;;;11.50;9.80;;;10.50;99.90;;;;;;5070346;28;20205;-59
2021/10/13 05:28:45;;;;;;;13.10;10.30;;;10.50;99.90;;;;;;5069936;28;20232;-58
2021/10/13 05:31:12;;;;;;;15.27;10.80;;;10.50;99.90;;;;;;5070057;28;20262;-59
2021/10/13 05:33:39;;;;;;;15.70;10.37;;;10.50;99.90;;;;;;5069768;28;20782;-59
2021/10/13 05:36:05;;;;;;;14.13;10.43;;;10.60;99.90;;;;;;5073634;28;20606;-58
2021/10/13 05:38:32;;;;;;;14.30;10.37;;;10.60;99.90;;;;;;5073523;28;20209;-59
2021/10/13 05:41:00;;;;;;;13.87;10.87;;;10.60;99.90;;;;;;5073820;28;20205;-59
2021/10/13 05:43:27;;;;;;;13.93;10.30;;;10.60;99.90;;;;;;5073311;28;20729;-59
2021/10/13 05:45:54;;;;;;;12.90;9.97;;;10.60;99.90;;;;;;5073482;28;20728;-59
2021/10/13 05:48:21;;;;;;;14.07;11.30;;;10.60;99.90;;;;;;5073415;28;20247;-59
2021/10/13 05:50:47;;;;;;;11.73;10.20;;;10.60;99.90;;;;;;5073561;28;20209;-58
2021/10/13 05:53:14;;;;;;;16.87;11.77;;;10.60;99.90;;;;;;5073906;28;20668;-57
2021/10/13 05:55:41;;;;;;;14.20;11.63;;;10.60;99.90;;;;;;5073687;28;20201;-59
2021/10/13 05:58:09;;;;;;;17.13;11.20;;;10.60;99.90;;;;;;5073423;28;20205;-59
2021/10/13 06:00:36;;;;;;;13.30;10.70;;;10.70;99.90;;;;;;5073324;28;20205;-58
2021/10/13 06:03:03;;;;;;;17.37;11.27;;;10.70;99.90;;;;;;5073053;28;20731;-57
2021/10/13 06:05:30;;;;;;;14.50;10.87;;;10.80;99.90;;;;;;5073006;28;20208;-59
2021/10/13 06:07:56;;;;;;;14.40;11.53;;;10.90;99.90;;;;;;5073059;28;20236;-58
2021/10/13 06:10:23;;;;;;;14.90;11.03;;;11.00;99.90;;;;;;5072866;28;20209;-58
2021/10/13 06:12:50;;;;;;;15.87;11.47;;;11.00;99.90;;;;;;5072918;28;20225;-58
2021/10/13 06:15:19;;;;;;;15.93;11.10;;;11.10;99.90;;;;;;5072600;28;20295;-58
2021/10/13 06:17:47;;;;;;;15.40;11.77;;;11.10;99.90;;;;;;5074473;28;20410;-58
2021/10/13 06:20:13;;;;;;;13.93;11.17;;;11.10;99.90;;;;;;5077805;28;20231;-58
2021/10/13 06:22:40;;;;;;;14.80;11.70;;;10.90;99.90;;;;;;5073354;28;20220;-58
2021/10/13 06:25:07;;;;;;;16.93;11.70;;;10.90;99.90;;;;;;5072994;28;20209;-58
2021/10/13 06:27:34;;;;;;;14.13;11.37;;;10.90;99.90;;;;;;5072833;28;20224;-57
2021/10/13 06:30:01;;;;;;;15.37;11.97;;;10.80;99.90;;;;;;5072660;28;20217;-58
2021/10/13 06:32:29;;;;;;;18.37;12.67;;;10.90;99.90;;;;;;5073082;28;20274;-58
2021/10/13 06:34:55;;;;;;;15.87;10.83;;;10.90;99.90;;;;;;5072716;28;20208;-63
2021/10/13 06:37:22;;;;;;;15.77;10.90;;;10.90;99.90;;;;;;5072999;28;20209;-59
2021/10/13 06:39:49;;;;;;;14.33;11.00;;;10.90;99.90;;;;;;5072689;28;20258;-64
2021/10/13 06:42:15;;;;;;;14.43;10.57;;;10.60;99.90;;;;;;5072588;28;20278;-58
2021/10/13 06:44:42;;;;;;;13.57;11.00;;;10.60;99.90;;;;;;5072350;28;20209;-59
2021/10/13 06:47:09;;;;;;;15.90;11.10;;;10.80;99.90;;;;;;5071838;28;20201;-58
2021/10/13 06:49:37;;;;;;;12.97;10.40;;;10.90;99.90;;;;;;5072485;28;20200;-58
2021/10/13 06:52:04;;;;;;;16.90;11.63;;;11.10;99.90;;;;;;5072371;28;20225;-58
2021/10/13 06:54:30;;;;;;;16.67;12.50;;;11.30;99.90;;;;;;5072281;28;20208;-58
2021/10/13 06:56:57;;;;;;;17.27;12.73;;;11.30;99.90;;;;;;5072329;28;20208;-60
2021/10/13 06:59:24;;;;;;;18.03;12.47;;;11.40;99.90;;;;;;5072084;28;20197;-58
2021/10/13 07:01:50;;;;;;;15.37;11.80;;;11.60;99.90;;;;;;5072441;28;20204;-59
2021/10/13 07:04:17;;;;;;;15.97;11.47;;;11.80;99.90;;;;;;5072187;28;20208;-59
2021/10/13 07:06:45;;;;;;;16.37;10.93;;;12.00;99.90;;;;;;5072290;28;20209;-58
2021/10/13 07:09:12;;;;;;;14.57;11.47;;;12.30;99.90;;;;;;5071809;28;20225;-59
2021/10/13 07:11:38;;;;;;;13.90;10.03;;;12.50;99.90;;;;;;5071982;28;20246;-58
2021/10/13 07:14:06;;;;;;;14.77;10.83;;;12.70;99.90;;;;;;5072354;28;20205;-62
2021/10/13 07:16:33;;;;;;;16.73;11.20;;;12.90;99.90;;;;;;5073210;28;20644;-59
2021/10/13 07:19:00;;;;;;;17.03;11.80;;;13.10;99.90;;;;;;5072677;28;20664;-56
2021/10/13 07:21:26;;;;;;;19.63;10.63;;;13.10;99.90;;;;;;5072265;28;20641;-56
2021/10/13 07:23:54;;;;;;;15.63;10.03;;;13.00;99.90;;;;;;5071982;28;20232;-56
2021/10/13 07:26:21;;;;;;;15.67;10.77;;;12.90;99.90;;;;;;5072051;28;20263;-55
2021/10/13 07:28:48;;;;;;;14.77;9.83;;;12.90;99.90;;;;;;5071408;28;20224;-57
2021/10/13 07:31:15;;;;;;;13.87;9.70;;;13.00;99.90;;;;;;5072080;28;20209;-56
2021/10/13 07:33:41;;;;;;;13.27;9.23;;;12.90;99.90;;;;;;5071205;28;20236;-56
2021/10/13 07:36:08;;;;;;;14.23;8.80;;;12.90;99.90;;;;;;5071433;28;20216;-58
2021/10/13 07:38:35;;;;;;;15.17;10.13;;;12.90;99.90;;;;;;5071411;28;20208;-56
2021/10/13 07:41:03;;;;;;;11.70;8.50;;;12.70;99.90;;;;;;5071451;28;20632;-56
2021/10/13 07:43:31;;;;;;;13.03;8.40;;;12.50;99.90;;;;;;5071028;28;20232;-58
2021/10/13 07:45:57;;;;;;;13.37;9.00;;;12.40;99.90;;;;;;5071493;28;20228;-56
2021/10/13 07:48:25;;;;;;;17.07;9.67;;;12.50;99.90;;;;;;5071247;28;20339;-56
2021/10/13 07:50:51;;;;;;;12.67;9.70;;;12.80;99.90;;;;;;5071425;28;20236;-56
2021/10/13 07:53:18;;;;;;;11.20;9.27;;;13.10;99.90;;;;;;5070937;28;20239;-56
2021/10/13 07:55:45;;;;;;;14.27;9.57;;;13.20;99.90;;;;;;5070868;28;20254;-56
2021/10/13 07:58:13;;;;;;;13.07;9.60;;;13.20;99.90;;;;;;5070044;28;20645;-56
2021/10/13 08:00:40;;;;;;;11.55;9.43;;;13.00;99.90;;;;;;5068209;28;20446;-61
2021/10/13 08:03:06;;;;;;;14.93;9.83;;;12.90;99.90;;;;;;5070751;28;20235;-59
2021/10/13 08:05:33;;;;;;;12.53;9.13;;;13.00;99.90;;;;;;5070771;28;20217;-58
2021/10/13 08:08:00;;;;;;;11.77;8.93;;;13.20;99.90;;;;;;5070855;28;20320;-56
2021/10/13 08:10:27;;;;;;;11.30;8.53;;;13.50;99.90;;;;;;5070630;28;20208;-56
2021/10/13 08:12:53;;;;;;;10.47;8.73;;;13.70;99.90;;;;;;5070789;28;20256;-57
2021/10/13 08:15:21;;;;;;;15.60;8.97;;;13.80;99.90;;;;;;5070712;28;20209;-55
2021/10/13 08:17:49;;;;;;;10.13;7.90;;;14.20;99.90;;;;;;5070552;28;20213;-56
2021/10/13 08:20:15;;;;;;;9.50;7.33;;;14.40;99.90;;;;;;5071224;28;20204;-55
2021/10/13 08:22:43;;;;;;;11.67;7.70;;;14.60;99.90;;;;;;5070459;28;20221;-55
2021/10/13 08:25:10;;;;;;;8.10;6.77;;;14.60;99.90;;;;;;5070488;28;20211;-55
2021/10/13 08:27:37;;;;;;;12.67;7.83;;;14.20;99.90;;;;;;5071032;28;20236;-56
2021/10/13 08:30:06;;;;;;;11.27;7.23;;;13.80;99.90;;;;;;5070900;28;20243;-55
2021/10/13 08:32:34;;;;;;;10.63;7.23;;;13.60;99.90;;;;;;5070450;28;20240;-55
2021/10/13 08:35:00;;;;;;;9.83;6.80;;;13.40;99.90;;;;;;5070711;28;20211;-55
2021/10/13 08:37:27;;;;;;;9.27;6.57;;;13.20;99.90;;;;;;5070389;28;20205;-56
2021/10/13 08:39:54;;;;;;;7.97;5.67;;;13.00;99.90;;;;;;5070132;28;20262;-57
2021/10/13 08:42:24;;;;;;;9.60;5.67;;;13.20;99.90;;;;;;5070571;28;20262;-56
2021/10/13 08:44:53;;;;;;;8.17;5.17;;;13.50;99.90;;;;;;5070308;28;20216;-56
2021/10/13 08:47:20;;;;;;;7.83;5.37;;;13.90;99.90;;;;;;5070291;28;20711;-55
2021/10/13 08:49:48;;;;;;;8.47;5.13;;;14.20;99.90;;;;;;5070105;28;20221;-56
2021/10/13 08:52:15;;;;;;;7.53;5.20;;;14.40;99.90;;;;;;5070045;28;20509;-56
2021/10/13 08:54:42;;;;;;;8.53;6.07;;;14.20;99.90;;;;;;5070263;28;20207;-55
2021/10/13 08:57:17;;;;;;;7.93;5.43;;;14.30;99.90;;;;;;5070213;28;20619;-55
2021/10/13 08:59:46;;;;;;;13.70;8.63;;;13.90;99.90;;;;;;5070263;28;20201;-57
2021/10/13 09:02:13;;;;;;;7.23;5.47;;;13.50;99.90;;;;;;5070068;28;20701;-55
2021/10/13 09:04:40;;;;;;;7.57;5.27;;;13.30;99.90;;;;;;5070092;28;20209;-56
2021/10/13 09:07:08;;;;;;;8.13;5.20;;;13.00;99.90;;;;;;5070207;28;20213;-57
2021/10/13 09:09:48;;;;;;;7.33;4.83;;;13.10;99.90;;;;;;5072457;28;20658;-56
2021/10/13 09:12:29;;;;;;;16.20;13.93;;;13.20;99.90;;;;;;5074203;28;20225;-56
2021/10/13 09:15:04;;;;;;;8.43;5.50;;;13.40;99.90;;;;;;5073890;28;20204;-56
2021/10/13 09:17:31;;;;;;;7.80;4.87;;;13.40;99.90;;;;;;5072201;28;20250;-56
2021/10/13 09:19:58;;;;;;;7.73;5.77;;;13.40;99.90;;;;;;5073760;28;20211;-58
2021/10/13 09:22:26;;;;;;;8.17;5.70;;;13.30;99.90;;;;;;5073628;28;20220;-56
2021/10/13 09:24:53;;;;;;;8.73;5.50;;;13.00;99.90;;;;;;5073657;28;20627;-57
2021/10/13 09:27:24;;;;;;;7.50;5.50;;;12.80;99.90;;;;;;5073845;28;20213;-57
2021/10/13 09:29:51;;;;;;;8.87;5.70;;;12.90;99.90;;;;;;5073661;28;20782;-57
2021/10/13 09:32:25;;;;;;;9.93;5.83;;;13.00;99.90;;;;;;5073500;28;20240;-57
2021/10/13 09:34:54;;;;;;;10.63;5.90;;;13.20;99.90;;;;;;5073593;28;20639;-57
2021/10/13 09:37:21;;;;;;;8.10;5.53;;;13.40;99.90;;;;;;5073306;28;20645;-58
2021/10/13 09:39:58;;;;;;;12.60;5.93;;;13.50;99.90;;;;;;5073127;28;20558;-57
2021/10/13 09:42:26;;;;;;;7.33;4.93;;;13.80;99.90;;;;;;5073514;28;20290;-58
2021/10/13 09:44:55;;;;;;;6.93;5.30;;;14.30;99.90;;;;;;5073170;28;20212;-57
2021/10/13 09:47:30;;;;;;;7.43;5.00;;;14.80;99.90;;;;;;5073031;28;20205;-57
2021/10/13 09:49:57;;;;;;;8.07;5.10;;;15.30;99.90;;;;;;5072981;28;20232;-57
2021/10/13 09:52:27;;;;;;;10.87;5.20;;;15.60;99.90;;;;;;5073143;28;20233;-56
2021/10/13 09:55:00;;;;;;;7.90;5.20;;;16.10;99.90;;;;;;5073612;28;20291;-57
2021/10/13 09:57:29;;;;;;;7.80;5.50;;;16.50;99.90;;;;;;5073174;28;20216;-56
2021/10/13 09:59:57;;;;;;;7.97;4.47;;;16.80;99.90;;;;;;5073067;28;20209;-56
2021/10/13 10:02:25;;;;;;;7.83;4.80;;;16.90;99.90;;;;;;5073166;28;20338;-57
2021/10/13 10:04:53;;;;;;;6.50;4.03;;;17.00;99.90;;;;;;5072590;28;20209;-57
2021/10/13 10:07:21;;;;;;;12.13;6.43;;;16.90;99.90;;;;;;5072830;28;20212;-57
2021/10/13 10:10:10;;;;;;;8.47;5.47;;;16.20;99.90;;;;;;5072795;28;20756;-58
2021/10/13 10:12:58;;;;;;;7.97;5.27;;;15.60;99.90;;;;;;5072571;28;20716;-58
2021/10/13 10:15:39;;;;;;;6.70;5.57;;;15.50;99.90;;;;;;5072187;28;20205;-58
2021/10/13 10:18:31;;;;;;;9.77;6.83;;;15.60;99.90;;;;;;5072581;28;20208;-58
2021/10/13 10:21:14;;;;;;;14.43;7.17;;;15.70;99.90;;;;;;5070158;28;20296;-59
2021/10/13 10:23:41;;;;;;;11.47;6.80;;;15.70;99.90;;;;;;5064986;28;20237;-57
2021/10/13 10:26:34;;;;;;;11.13;6.93;;;15.70;99.90;;;;;;5052306;28;20245;-57
2021/10/13 10:29:04;;;;;;;13.57;7.80;;;15.70;99.90;;;;;;5052496;28;20226;-60
2021/10/13 10:31:39;;;;;;;13.47;7.03;;;15.40;99.90;;;;;;5052456;28;20209;-58
2021/10/13 10:34:15;;;;;;;13.93;8.73;;;15.30;99.90;;;;;;5052194;28;20209;-58
2021/10/13 10:37:14;;;;;;;15.90;9.37;;;15.20;99.90;;;;;;5052197;28;20637;-58
2021/10/13 10:40:04;;;;;;;14.67;9.37;;;15.00;99.90;;;;;;5052621;28;20279;-56
2021/10/13 10:43:01;;;;;;;14.60;9.37;;;15.10;99.90;;;;;;5052084;28;20317;-57
2021/10/13 10:45:38;;;;;;;16.27;9.23;;;15.00;99.90;;;;;;5052100;28;20314;-56
2021/10/13 10:48:13;;;;;;;14.10;9.00;;;15.30;99.90;;;;;;5052036;28;20262;-57
2021/10/13 10:51:09;;;;;;;10.03;7.20;;;15.50;99.90;;;;;;5051956;28;20233;-58
2021/10/13 10:53:39;;;;;;;13.80;8.13;;;15.50;99.90;;;;;;5052409;28;20237;-56
2021/10/13 10:56:27;;;;;;;14.17;6.13;;;15.60;99.90;;;;;;5052662;28;20198;-57
2021/10/13 10:59:07;;;;;;;8.70;6.17;;;15.90;99.90;;;;;;5051973;28;20261;-56
2021/10/13 11:01:34;;;;;;;12.17;6.77;;;16.30;99.90;;;;;;5051978;28;20625;-57
2021/10/13 11:04:10;;;;;;;10.20;5.63;;;16.70;99.90;;;;;;5051816;28;20221;-58
2021/10/13 11:06:39;;;;;;;9.57;6.57;;;17.10;99.90;;;;;;5051919;28;20229;-59
2021/10/13 11:09:08;;;;;;;8.60;6.20;;;17.40;99.90;;;;;;5051567;28;20225;-58
2021/10/13 11:11:37;;;;;;;9.27;5.70;;;17.60;99.90;;;;;;5051323;28;20213;-57
2021/10/13 11:14:08;;;;;;;10.13;6.40;;;17.70;99.90;;;;;;5051490;28;20621;-58
2021/10/13 11:16:38;;;;;;;12.00;6.97;;;17.50;99.90;;;;;;5051756;28;20217;-57
2021/10/13 11:19:15;;;;;;;9.60;4.40;;;17.10;99.90;;;;;;5051500;28;20320;-57
2021/10/13 11:21:42;;;;;;;6.20;3.33;;;16.40;99.90;;;;;;5051368;28;20506;-58
2021/10/13 11:24:09;;;;;;;8.00;4.53;;;15.90;99.90;;;;;;5051249;28;20206;-56
2021/10/13 11:26:36;;;;;;;7.37;4.00;;;15.70;99.90;;;;;;5051641;28;20239;-58
2021/10/13 11:29:03;;;;;;;8.37;4.50;;;15.60;99.90;;;;;;5051366;28;20264;-59
2021/10/13 11:31:31;;;;;;;7.20;3.70;;;15.50;99.90;;;;;;5051307;28;20212;-58
2021/10/13 11:34:08;;;;;;;8.07;4.03;;;15.70;99.90;;;;;;5050358;28;20500;-59
2021/10/13 11:36:51;;;;;;;9.67;4.30;;;15.90;99.90;;;;;;5051829;28;20205;-58
2021/10/13 11:39:22;;;;;;;5.73;4.30;;;15.60;99.90;;;;;;5051737;28;20205;-58
2021/10/13 11:41:49;;;;;;;5.30;4.27;;;15.90;99.90;;;;;;5051556;28;20214;-59
2021/10/13 11:44:17;;;;;;;5.00;3.10;;;16.20;99.90;;;;;;5051318;28;20577;-57
2021/10/13 11:47:12;;;;;;;5.93;2.97;;;16.40;99.90;;;;;;5051048;28;20213;-57
2021/10/13 11:49:56;;;;;;;3.83;1.80;;;16.50;99.90;;;;;;5050998;28;20236;-58
2021/10/13 11:52:23;;;;;;;2.80;1.80;;;16.70;99.90;;;;;;5051241;28;20260;-59
2021/10/13 11:55:01;;;;;;;2.73;0.63;;;16.90;99.90;;;;;;5051374;28;20205;-58
2021/10/13 11:57:27;;;;;;;2.33;1.30;;;16.80;99.90;;;;;;5050876;28;20227;-59
2021/10/13 12:00:15;;;;;;;1.33;1.10;;;16.80;99.90;;;;;;5051044;28;20241;-59
2021/10/13 12:03:03;;;;;;;1.80;1.20;;;17.00;99.90;;;;;;5050842;28;20239;-56
2021/10/13 12:05:32;;;;;;;4.60;1.90;;;16.90;99.90;;;;;;5050965;28;20290;-55
2021/10/13 12:08:03;;;;;;;2.77;1.67;;;17.00;99.90;;;;;;5050627;28;20271;-56
2021/10/13 12:10:43;;;;;;;4.80;2.17;;;16.80;99.90;;;;;;5051059;28;20236;-56
2021/10/13 12:13:12;;;;;;;6.03;2.50;;;16.30;99.90;;;;;;5050853;28;20567;-55
2021/10/13 12:15:41;;;;;;;5.67;1.90;;;16.00;99.90;;;;;;5050593;28;20477;-56
2021/10/13 12:18:19;;;;;;;4.13;1.83;;;15.90;99.90;;;;;;5050497;28;20205;-56
2021/10/13 12:20:48;;;;;;;3.30;2.13;;;15.50;99.90;;;;;;5050748;28;20205;-55
2021/10/13 12:23:16;;;;;;;4.43;2.40;;;15.50;99.90;;;;;;5050552;28;20266;-56
2021/10/13 12:25:43;;;;;;;7.20;2.67;;;15.70;99.90;;;;;;5050556;28;20282;-55
2021/10/13 12:28:19;;;;;;;8.73;2.97;;;15.60;99.90;;;;;;5050482;28;20228;-56
2021/10/13 12:30:48;;;;;;;6.20;2.80;;;15.50;99.90;;;;;;5050534;28;20313;-55
2021/10/13 12:33:18;;;;;;;5.07;3.00;;;15.10;99.90;;;;;;5095992;22;20243;-59
2021/10/13 12:35:45;;;;;;;6.67;3.60;;;14.80;99.90;;;;;;5091479;28;20571;-58
2021/10/13 12:38:14;;;;;;;5.20;3.03;;;14.40;99.90;;;;;;5091062;28;20204;-58
2021/10/13 12:40:41;;;;;;;6.97;3.40;;;13.90;99.90;;;;;;5091441;28;20208;-58
2021/10/13 12:43:18;;;;;;;5.97;3.90;;;13.60;99.90;;;;;;5091841;28;20607;-58
2021/10/13 12:45:45;;;;;;;8.07;3.93;;;13.20;99.90;;;;;;5097321;28;20265;-58
2021/10/13 12:48:19;;;;;;;6.03;3.77;;;12.90;99.90;;;;;;5096347;28;20209;-60
2021/10/13 12:51:05;;;;;;;6.23;3.47;;;12.80;99.90;;;;;;5095314;28;20733;-62
2021/10/13 12:53:32;;;;;;;8.40;4.40;;;12.90;99.90;;;;;;5096446;28;20224;-64